Time;durP1;ratioP1;P1;durP2;ratioP2;P2;SDS_P1;SDS_P2;PMS_P1;PMS_P2;Temp;Humidity;BMP_temperature;BMP_pressure;BME280_temperature;BME280_humidity;BME280_pressure;Samples;Min_cycle;Max_cycle;Signal;HPM_P1;HPM_P2
2023/04/22 00:00:17;;;;;;;26.23;12.68;;;10.00;99.90;;;;;;5051735;28;20040;-82
2023/04/22 00:02:43;;;;;;;29.80;13.52;;;9.90;99.90;;;;;;5052531;28;20045;-82
2023/04/22 00:05:12;;;;;;;26.55;13.20;;;9.80;99.90;;;;;;5051738;28;20045;-81
2023/04/22 00:07:41;;;;;;;29.25;13.27;;;9.80;99.90;;;;;;5053452;28;20114;-82
2023/04/22 00:10:10;;;;;;;36.30;16.90;;;9.70;99.90;;;;;;5051926;28;20045;-84
2023/04/22 00:12:36;;;;;;;39.22;18.40;;;9.70;99.90;;;;;;5052712;28;20124;-82
2023/04/22 00:15:01;;;;;;;30.90;14.70;;;9.60;99.90;;;;;;5053093;28;20032;-82
2023/04/22 00:17:27;;;;;;;30.83;14.23;;;9.60;99.90;;;;;;5053130;28;20053;-81
2023/04/22 00:19:53;;;;;;;28.63;13.35;;;9.50;99.90;;;;;;5052271;28;20080;-83
2023/04/22 00:22:19;;;;;;;27.20;13.98;;;9.50;99.90;;;;;;5053438;28;20368;-85
2023/04/22 00:24:44;;;;;;;33.92;15.25;;;9.50;99.90;;;;;;5057028;28;20040;-88
2023/04/22 00:27:10;;;;;;;27.48;14.55;;;9.40;99.90;;;;;;5058639;28;20091;-84
2023/04/22 00:29:36;;;;;;;31.25;14.02;;;9.40;99.90;;;;;;5058110;28;20071;-83
2023/04/22 00:32:02;;;;;;;28.33;14.02;;;9.20;99.90;;;;;;5061133;28;20037;-84
2023/04/22 00:34:27;;;;;;;30.20;14.63;;;9.20;99.90;;;;;;5056853;28;20044;-82
2023/04/22 00:36:53;;;;;;;30.00;14.32;;;9.20;99.90;;;;;;5056055;28;20071;-83
2023/04/22 00:39:19;;;;;;;31.15;14.85;;;9.10;99.90;;;;;;5056122;28;20051;-83
2023/04/22 00:41:45;;;;;;;30.30;13.90;;;9.10;99.90;;;;;;5055247;28;20080;-84
2023/04/22 00:44:11;;;;;;;31.38;13.90;;;9.10;99.90;;;;;;5055932;28;20103;-84
2023/04/22 00:46:38;;;;;;;29.00;13.98;;;9.10;99.90;;;;;;5055941;28;20450;-82
2023/04/22 00:49:05;;;;;;;30.27;14.10;;;9.00;99.90;;;;;;5056967;28;20433;-82
2023/04/22 00:51:31;;;;;;;29.13;13.93;;;9.00;99.90;;;;;;5056368;28;20037;-80
2023/04/22 00:53:57;;;;;;;29.77;14.45;;;9.00;99.90;;;;;;5056784;28;20080;-81
2023/04/22 00:56:27;;;;;;;29.42;14.48;;;8.90;99.90;;;;;;5056075;28;20049;-81
2023/04/22 00:58:54;;;;;;;31.20;14.00;;;9.00;99.90;;;;;;5056627;28;20044;-81
2023/04/22 01:01:20;;;;;;;30.00;14.20;;;8.90;99.90;;;;;;5056071;28;20044;-81
2023/04/22 01:03:48;;;;;;;29.17;13.77;;;8.90;99.90;;;;;;5055759;28;20048;-82
2023/04/22 01:06:15;;;;;;;26.77;13.50;;;8.80;99.90;;;;;;5053960;28;20033;-83
2023/04/22 01:08:41;;;;;;;29.05;14.52;;;8.80;99.90;;;;;;5055612;28;20048;-83
2023/04/22 01:11:06;;;;;;;38.65;13.93;;;8.80;99.90;;;;;;5055757;28;20154;-83
2023/04/22 01:13:32;;;;;;;31.00;14.48;;;8.70;99.90;;;;;;5054298;28;20544;-83
2023/04/22 01:16:00;;;;;;;28.55;13.75;;;8.70;99.90;;;;;;5055554;28;20086;-81
2023/04/22 01:18:26;;;;;;;27.33;14.00;;;8.60;99.90;;;;;;5037712;28;20155;-82
2023/04/22 01:20:52;;;;;;;30.05;13.70;;;8.60;99.90;;;;;;5054304;28;20064;-82
2023/04/22 01:23:21;;;;;;;27.92;13.10;;;8.60;99.90;;;;;;5055385;28;20170;-82
2023/04/22 01:25:48;;;;;;;32.70;13.48;;;8.60;99.90;;;;;;5056183;28;20102;-81
2023/04/22 01:28:15;;;;;;;25.58;13.57;;;8.50;99.90;;;;;;5037771;28;20049;-80
2023/04/22 01:30:42;;;;;;;27.15;13.20;;;8.50;99.90;;;;;;5054065;28;20384;-80
2023/04/22 01:33:10;;;;;;;30.42;13.82;;;8.60;99.90;;;;;;5055864;28;20048;-80
2023/04/22 01:35:36;;;;;;;32.92;14.52;;;8.60;99.90;;;;;;5054983;28;20041;-79
2023/04/22 01:38:04;;;;;;;30.37;14.73;;;8.60;99.90;;;;;;5054402;28;20084;-81
2023/04/22 01:40:33;;;;;;;28.65;14.48;;;8.60;99.90;;;;;;5053854;28;20401;-79
2023/04/22 01:42:59;;;;;;;34.30;15.02;;;8.60;99.90;;;;;;5055026;28;20091;-80
2023/04/22 01:45:26;;;;;;;30.00;14.10;;;8.60;99.90;;;;;;5054917;28;20041;-79
2023/04/22 01:47:52;;;;;;;28.67;14.65;;;8.60;99.90;;;;;;5054346;28;20110;-82
2023/04/22 01:50:18;;;;;;;31.90;14.93;;;8.50;99.90;;;;;;5038031;28;20136;-79
2023/04/22 01:52:43;;;;;;;30.20;14.15;;;8.40;99.90;;;;;;5055744;28;20123;-79
2023/04/22 01:55:09;;;;;;;27.70;13.88;;;8.40;99.90;;;;;;5054584;28;20452;-79
2023/04/22 01:57:35;;;;;;;27.60;13.32;;;8.40;99.90;;;;;;5054776;28;20040;-80
2023/04/22 02:00:01;;;;;;;30.52;13.88;;;8.40;99.90;;;;;;5037726;28;20048;-81
2023/04/22 02:02:27;;;;;;;29.33;13.80;;;8.30;99.90;;;;;;5037008;28;20120;-80
2023/04/22 02:04:52;;;;;;;27.42;13.60;;;8.30;99.90;;;;;;5053961;28;20040;-80
2023/04/22 02:07:18;;;;;;;29.90;14.10;;;8.20;99.90;;;;;;5053631;28;20397;-78
2023/04/22 02:09:44;;;;;;;26.17;12.93;;;8.20;99.90;;;;;;5053435;28;20117;-82
2023/04/22 02:12:10;;;;;;;29.25;13.75;;;8.20;99.90;;;;;;5054594;28;20044;-79
2023/04/22 02:14:35;;;;;;;25.92;12.70;;;8.10;99.90;;;;;;5053494;28;20040;-80
2023/04/22 02:17:02;;;;;;;28.63;13.98;;;8.10;99.90;;;;;;5054305;28;20044;-79
2023/04/22 02:19:28;;;;;;;30.00;14.13;;;8.10;99.90;;;;;;5054183;28;20053;-79
2023/04/22 02:21:54;;;;;;;27.40;13.32;;;8.10;99.90;;;;;;5055049;28;20287;-79
2023/04/22 02:24:20;;;;;;;30.37;14.23;;;8.10;99.90;;;;;;5054843;28;20045;-80
2023/04/22 02:26:46;;;;;;;28.88;13.45;;;8.10;99.90;;;;;;5054096;28;20823;-81
2023/04/22 02:29:12;;;;;;;29.25;13.18;;;8.10;99.90;;;;;;5036156;28;20052;-80
2023/04/22 02:31:38;;;;;;;27.83;13.60;;;8.10;99.90;;;;;;5053844;28;20045;-78
2023/04/22 02:34:03;;;;;;;29.27;13.45;;;8.00;99.90;;;;;;5055030;28;20048;-81
2023/04/22 02:36:30;;;;;;;28.95;13.68;;;7.90;99.90;;;;;;5054296;28;20485;-80
2023/04/22 02:38:57;;;;;;;31.05;14.00;;;8.00;99.90;;;;;;5053445;28;20052;-81
2023/04/22 02:41:23;;;;;;;28.23;14.40;;;8.10;99.90;;;;;;5054507;28;20056;-77
2023/04/22 02:43:48;;;;;;;28.88;14.18;;;8.00;99.90;;;;;;5053815;28;20045;-80
2023/04/22 02:46:15;;;;;;;32.08;14.52;;;8.00;99.90;;;;;;5035996;28;20203;-80
2023/04/22 02:48:41;;;;;;;31.52;14.38;;;8.00;99.90;;;;;;5052685;28;20175;-80
2023/04/22 02:51:08;;;;;;;29.58;14.30;;;7.90;99.90;;;;;;5052538;28;20148;-79
2023/04/22 02:53:33;;;;;;;32.03;14.15;;;7.80;99.90;;;;;;5036229;28;20067;-80
2023/04/22 02:55:59;;;;;;;31.77;14.48;;;7.80;99.90;;;;;;5052173;28;20118;-79
2023/04/22 02:58:25;;;;;;;34.60;15.30;;;7.80;99.90;;;;;;5035904;28;20049;-80
2023/04/22 03:00:51;;;;;;;34.67;14.60;;;7.70;99.90;;;;;;5035796;28;20110;-81
2023/04/22 03:03:17;;;;;;;32.88;15.23;;;7.70;99.90;;;;;;5036505;28;20339;-80
2023/04/22 03:05:43;;;;;;;34.17;14.60;;;7.60;99.90;;;;;;5051941;28;20086;-80
2023/04/22 03:08:09;;;;;;;31.27;14.95;;;7.70;99.90;;;;;;5053339;28;20053;-79
2023/04/22 03:10:35;;;;;;;32.80;14.57;;;7.60;99.90;;;;;;5053251;28;20118;-80
2023/04/22 03:13:01;;;;;;;31.48;14.23;;;7.60;99.90;;;;;;5052135;28;20045;-80
2023/04/22 03:15:27;;;;;;;32.45;14.57;;;7.60;99.90;;;;;;5053000;28;20056;-81
2023/04/22 03:17:52;;;;;;;31.90;14.27;;;7.60;99.90;;;;;;5053053;28;20056;-79
2023/04/22 03:20:19;;;;;;;32.85;14.35;;;7.60;99.90;;;;;;5052253;28;20109;-80
2023/04/22 03:22:45;;;;;;;28.00;13.50;;;7.60;99.90;;;;;;5052735;28;20440;-79
2023/04/22 03:25:11;;;;;;;30.38;14.45;;;7.60;99.90;;;;;;5053138;28;20124;-79
2023/04/22 03:27:36;;;;;;;31.65;14.20;;;7.60;99.90;;;;;;5036179;28;20378;-80
2023/04/22 03:30:04;;;;;;;30.92;14.82;;;7.60;99.90;;;;;;5052156;28;20044;-79
2023/04/22 03:32:30;;;;;;;32.33;15.55;;;7.50;99.90;;;;;;5036291;28;20065;-79
2023/04/22 03:34:55;;;;;;;31.52;14.98;;;7.50;99.90;;;;;;5053140;28;20094;-78
2023/04/22 03:37:21;;;;;;;32.33;14.60;;;7.50;99.90;;;;;;5052113;28;20049;-79
2023/04/22 03:39:46;;;;;;;31.48;15.10;;;7.50;99.90;;;;;;5051882;28;20049;-77
2023/04/22 03:42:13;;;;;;;34.33;15.68;;;7.60;99.90;;;;;;5053144;28;20136;-79
2023/04/22 03:44:39;;;;;;;35.03;15.65;;;7.50;99.90;;;;;;5035301;28;20041;-79
2023/04/22 03:47:05;;;;;;;35.72;16.08;;;7.50;99.90;;;;;;5052098;28;20056;-79
2023/04/22 03:49:31;;;;;;;35.78;16.25;;;7.50;99.90;;;;;;5052013;28;20052;-79
2023/04/22 03:51:57;;;;;;;33.50;17.00;;;7.50;99.90;;;;;;5051855;28;20481;-78
2023/04/22 03:54:23;;;;;;;36.78;15.73;;;7.50;99.90;;;;;;5052850;28;20136;-78
2023/04/22 03:56:49;;;;;;;39.92;17.88;;;7.50;99.90;;;;;;5052653;28;20044;-78
2023/04/22 03:59:16;;;;;;;40.85;18.20;;;7.50;99.90;;;;;;5056110;28;20540;-77
2023/04/22 04:01:42;;;;;;;41.33;18.05;;;7.60;99.90;;;;;;5038983;28;20056;-79
2023/04/22 04:04:14;;;;;;;39.83;18.83;;;7.60;99.90;;;;;;5055683;28;20041;-78
2023/04/22 04:06:40;;;;;;;41.25;19.42;;;7.70;99.90;;;;;;5055451;28;20136;-78
2023/04/22 04:09:05;;;;;;;44.40;19.02;;;7.70;99.90;;;;;;5056697;28;20123;-80
2023/04/22 04:11:31;;;;;;;42.83;18.73;;;7.70;99.90;;;;;;5055441;28;20041;-78
2023/04/22 04:13:57;;;;;;;43.90;19.15;;;7.70;99.90;;;;;;5056460;28;20160;-78
2023/04/22 04:16:23;;;;;;;46.70;19.10;;;7.70;99.90;;;;;;5056500;28;20392;-79
2023/04/22 04:18:51;;;;;;;40.67;19.55;;;7.70;99.90;;;;;;5056471;28;20061;-77
2023/04/22 04:21:17;;;;;;;42.75;18.85;;;7.70;99.90;;;;;;5056421;28;20045;-78
2023/04/22 04:23:43;;;;;;;41.63;18.63;;;7.70;99.90;;;;;;5056302;28;20092;-76
2023/04/22 04:26:09;;;;;;;44.25;20.13;;;7.90;99.90;;;;;;5055306;28;20053;-77
2023/04/22 04:28:35;;;;;;;41.17;18.57;;;8.00;99.90;;;;;;5056636;28;20142;-77
2023/04/22 04:31:04;;;;;;;41.67;19.15;;;8.10;99.90;;;;;;5054957;28;20049;-77
2023/04/22 04:33:33;;;;;;;39.33;18.95;;;8.10;99.90;;;;;;5055878;28;20052;-77
2023/04/22 04:35:59;;;;;;;43.50;20.17;;;8.20;99.90;;;;;;5056319;28;20049;-79
2023/04/22 04:38:25;;;;;;;42.10;20.00;;;8.20;99.90;;;;;;5055013;28;20044;-79
2023/04/22 04:40:52;;;;;;;45.63;20.83;;;8.20;99.90;;;;;;5039227;28;20774;-79
2023/04/22 04:43:18;;;;;;;;;;;8.20;99.90;;;;;;5056433;28;20094;-78
2023/04/22 04:45:45;;;;;;;39.55;18.15;;;8.20;99.90;;;;;;5088466;28;20320;-78
2023/04/22 04:48:15;;;;;;;41.95;19.52;;;8.10;99.90;;;;;;5071614;28;20089;-77
2023/04/22 04:50:42;;;;;;;41.30;19.23;;;8.10;99.90;;;;;;5056007;28;20064;-78
2023/04/22 04:53:08;;;;;;;42.08;20.50;;;8.10;99.90;;;;;;5055805;28;20088;-78
2023/04/22 04:55:34;;;;;;;44.25;20.00;;;8.10;99.90;;;;;;5055054;28;20045;-79
2023/04/22 04:58:00;;;;;;;41.45;19.23;;;8.10;99.90;;;;;;5037961;28;20127;-78
2023/04/22 05:00:25;;;;;;;44.03;21.08;;;8.10;99.90;;;;;;5055826;28;20048;-79
2023/04/22 05:02:51;;;;;;;41.72;20.70;;;8.10;99.90;;;;;;5056302;28;20048;-78
2023/04/22 05:05:17;;;;;;;40.35;20.65;;;8.20;99.90;;;;;;5038673;28;20052;-78
2023/04/22 05:07:43;;;;;;;43.63;20.85;;;8.20;99.90;;;;;;5021534;28;20405;-78
2023/04/22 05:10:09;;;;;;;41.95;20.73;;;8.20;99.90;;;;;;5036477;28;20059;-78
2023/04/22 05:12:35;;;;;;;45.90;20.63;;;8.30;99.90;;;;;;5055035;28;20462;-78
2023/04/22 05:15:01;;;;;;;47.00;21.33;;;8.30;99.90;;;;;;5054493;28;20052;-79
2023/04/22 05:17:27;;;;;;;43.97;21.23;;;8.30;99.90;;;;;;5037597;28;20492;-79
2023/04/22 05:19:53;;;;;;;48.78;21.98;;;8.40;99.90;;;;;;5054875;28;20132;-79
2023/04/22 05:22:18;;;;;;;46.20;21.77;;;8.40;99.90;;;;;;5037622;28;20052;-80
2023/04/22 05:24:44;;;;;;;43.95;21.38;;;8.50;99.90;;;;;;5055128;28;20366;-77
2023/04/22 05:27:10;;;;;;;40.60;20.73;;;8.50;99.90;;;;;;5054954;28;20044;-77
2023/04/22 05:29:36;;;;;;;40.75;20.95;;;8.60;99.90;;;;;;5054521;28;20131;-76
2023/04/22 05:32:01;;;;;;;40.40;20.00;;;8.70;99.90;;;;;;5054052;28;20051;-77
2023/04/22 05:34:27;;;;;;;39.83;19.50;;;8.70;99.90;;;;;;5055161;28;20049;-78
2023/04/22 05:36:53;;;;;;;42.17;19.52;;;8.80;99.90;;;;;;5020802;28;20390;-77
2023/04/22 05:39:19;;;;;;;40.55;20.27;;;8.90;99.90;;;;;;5070972;28;20036;-78
2023/04/22 05:41:45;;;;;;;41.08;19.63;;;9.00;99.90;;;;;;5054863;28;20439;-77
2023/04/22 05:44:10;;;;;;;37.55;20.30;;;9.00;99.90;;;;;;5055743;28;20049;-79
2023/04/22 05:46:36;;;;;;;39.28;19.65;;;9.10;99.90;;;;;;5053929;28;20049;-78
2023/04/22 05:49:02;;;;;;;36.28;19.50;;;9.20;99.90;;;;;;5053573;28;20045;-78
2023/04/22 05:51:27;;;;;;;36.90;19.40;;;9.20;99.90;;;;;;5037234;28;20063;-80
2023/04/22 05:53:53;;;;;;;34.33;17.95;;;9.30;99.90;;;;;;5053906;28;20044;-81
2023/04/22 05:56:20;;;;;;;36.13;17.30;;;9.30;99.90;;;;;;5054437;28;20048;-80
2023/04/22 05:58:45;;;;;;;35.60;18.65;;;9.40;99.90;;;;;;5053961;28;20515;-80
2023/04/22 06:01:12;;;;;;;32.53;17.35;;;9.50;99.90;;;;;;5036969;28;20045;-79
2023/04/22 06:03:37;;;;;;;33.97;17.83;;;9.50;99.90;;;;;;5053492;28;20045;-80
2023/04/22 06:06:04;;;;;;;31.80;17.63;;;9.50;99.90;;;;;;5020129;28;20102;-81
2023/04/22 06:08:30;;;;;;;34.40;17.63;;;9.60;99.90;;;;;;5070434;28;20123;-81
2023/04/22 06:10:56;;;;;;;35.47;18.87;;;9.60;99.90;;;;;;5053764;28;20132;-81
2023/04/22 06:13:22;;;;;;;32.30;16.38;;;9.70;99.90;;;;;;5054397;28;20045;-80
2023/04/22 06:15:47;;;;;;;34.13;18.33;;;9.70;99.90;;;;;;5053603;28;20098;-83
2023/04/22 06:18:13;;;;;;;33.22;17.73;;;9.80;99.90;;;;;;5053128;28;20061;-82
2023/04/22 06:20:39;;;;;;;32.75;17.35;;;9.80;99.90;;;;;;5052903;28;20058;-82
2023/04/22 06:23:05;;;;;;;32.35;17.50;;;9.90;99.90;;;;;;5053531;28;20080;-82
2023/04/22 06:25:31;;;;;;;32.13;17.05;;;10.00;99.90;;;;;;5036523;28;20552;-83
2023/04/22 06:27:58;;;;;;;32.80;17.52;;;10.00;99.90;;;;;;5054525;28;20051;-85
2023/04/22 06:30:24;;;;;;;33.63;17.98;;;10.10;99.90;;;;;;5053323;28;20519;-83
2023/04/22 06:32:51;;;;;;;30.05;16.70;;;10.20;99.90;;;;;;5054435;28;20045;-84
2023/04/22 06:35:17;;;;;;;30.17;17.38;;;10.30;99.90;;;;;;5054583;28;20041;-83
2023/04/22 06:37:43;;;;;;;29.65;16.80;;;10.30;99.90;;;;;;5054143;28;20052;-82
2023/04/22 06:40:09;;;;;;;27.67;15.98;;;10.50;99.90;;;;;;5036220;28;20051;-84
2023/04/22 06:42:35;;;;;;;28.75;16.95;;;10.50;99.90;;;;;;5055416;28;20048;-84
2023/04/22 06:45:03;;;;;;;30.20;16.13;;;10.60;99.90;;;;;;5055572;28;20037;-84
2023/04/22 06:47:29;;;;;;;27.83;16.15;;;10.70;99.90;;;;;;5036898;28;20055;-84
2023/04/22 06:49:54;;;;;;;29.23;16.27;;;10.70;99.90;;;;;;5054230;28;20049;-84
2023/04/22 06:52:20;;;;;;;28.52;15.73;;;10.80;99.90;;;;;;5054872;28;20052;-84
2023/04/22 06:54:46;;;;;;;29.05;16.63;;;10.90;99.90;;;;;;5056307;28;20095;-83
2023/04/22 06:57:12;;;;;;;27.73;15.13;;;11.00;99.90;;;;;;5057172;28;20053;-83
2023/04/22 06:59:37;;;;;;;27.23;15.95;;;11.00;99.90;;;;;;5065115;28;20045;-83
2023/04/22 07:02:04;;;;;;;30.60;15.30;;;11.10;99.90;;;;;;5066785;28;20539;-83
2023/04/22 07:04:30;;;;;;;29.92;15.02;;;11.10;99.90;;;;;;5067037;28;20065;-87
2023/04/22 07:06:57;;;;;;;26.63;14.80;;;11.20;99.90;;;;;;5041064;28;20057;-86
2023/04/22 07:09:23;;;;;;;31.30;15.88;;;11.30;99.90;;;;;;5038719;28;20520;-85
2023/04/22 07:11:48;;;;;;;26.17;15.32;;;11.30;99.90;;;;;;5039239;28;20048;-88
2023/04/22 07:14:14;;;;;;;26.38;14.40;;;11.40;99.90;;;;;;5054076;28;20393;-85
2023/04/22 07:16:40;;;;;;;30.23;15.32;;;11.50;99.90;;;;;;5054921;28;20095;-85
2023/04/22 07:19:06;;;;;;;26.42;15.50;;;11.60;99.90;;;;;;5054995;28;20095;-85
2023/04/22 07:21:32;;;;;;;25.25;14.48;;;11.60;99.90;;;;;;5037292;28;20045;-86
2023/04/22 07:23:58;;;;;;;25.00;14.85;;;11.60;99.90;;;;;;5054418;28;20046;-84
2023/04/22 07:26:23;;;;;;;24.23;14.38;;;11.70;99.90;;;;;;5053799;28;20048;-83
2023/04/22 07:28:52;;;;;;;25.95;13.57;;;11.80;99.90;;;;;;5055652;28;20059;-88
2023/04/22 07:31:17;;;;;;;22.60;13.95;;;11.90;99.90;;;;;;5055178;28;20481;-86
2023/04/22 07:33:43;;;;;;;23.73;13.77;;;12.00;99.90;;;;;;5053377;28;20092;-85
2023/04/22 07:36:09;;;;;;;22.83;13.52;;;12.10;99.90;;;;;;5054209;28;20164;-85
2023/04/22 07:38:35;;;;;;;27.67;14.07;;;12.20;99.90;;;;;;5054808;28;20119;-84
2023/04/22 07:41:01;;;;;;;22.35;13.32;;;12.30;99.90;;;;;;5057451;28;20124;-86
2023/04/22 07:43:26;;;;;;;21.23;13.07;;;12.40;99.90;;;;;;5055194;28;20087;-84
2023/04/22 07:45:52;;;;;;;23.02;13.43;;;12.50;99.90;;;;;;5038139;28;20487;-86
2023/04/22 07:48:18;;;;;;;20.95;11.98;;;12.60;99.90;;;;;;5053280;28;20132;-86
2023/04/22 07:50:44;;;;;;;24.15;13.70;;;12.70;99.90;;;;;;5053011;28;20063;-86
2023/04/22 07:53:09;;;;;;;22.35;13.60;;;12.90;99.90;;;;;;5053885;28;20049;-86
2023/04/22 07:55:35;;;;;;;20.80;12.13;;;13.00;99.90;;;;;;5052882;28;20041;-88
2023/04/22 07:58:05;;;;;;;20.75;12.40;;;13.20;99.90;;;;;;5053847;28;20135;-84
2023/04/22 08:00:34;;;;;;;21.08;12.40;;;13.30;99.90;;;;;;5053911;28;20095;-84
2023/04/22 08:03:02;;;;;;;18.75;11.35;;;13.40;99.90;;;;;;5052545;28;20056;-83
2023/04/22 08:05:27;;;;;;;20.25;11.65;;;13.60;99.90;;;;;;5053018;28;20045;-86
2023/04/22 08:07:53;;;;;;;21.23;12.18;;;13.70;99.90;;;;;;5052358;28;20178;-85
2023/04/22 08:10:19;;;;;;;20.75;12.10;;;13.80;99.90;;;;;;5055321;28;20048;-82
2023/04/22 08:12:45;;;;;;;21.00;12.27;;;14.00;99.90;;;;;;5054400;28;20056;-81
2023/04/22 08:15:11;;;;;;;15.65;9.32;;;14.10;99.90;;;;;;5055793;28;20090;-80
2023/04/22 08:17:37;;;;;;;16.30;10.20;;;14.30;99.90;;;;;;5057645;28;20434;-84
2023/04/22 08:20:04;;;;;;;18.08;10.15;;;14.50;99.90;;;;;;5055453;28;20052;-80
2023/04/22 08:22:30;;;;;;;15.23;9.85;;;14.60;99.90;;;;;;5055675;28;20055;-81
2023/04/22 08:24:58;;;;;;;16.98;10.20;;;14.80;99.90;;;;;;5059030;28;20049;-83
2023/04/22 08:27:23;;;;;;;;;;;15.00;99.90;;;;;;5060276;28;20084;-81
2023/04/22 08:29:49;;;;;;;14.77;8.77;;;15.10;99.90;;;;;;5093568;28;19939;-83
2023/04/22 08:32:15;;;;;;;14.38;8.73;;;15.20;99.90;;;;;;5058632;28;20078;-84
2023/04/22 08:34:41;;;;;;;14.68;8.77;;;15.30;99.90;;;;;;5059029;28;20132;-82
2023/04/22 08:37:07;;;;;;;16.95;9.40;;;15.20;99.90;;;;;;5057745;28;20432;-86
2023/04/22 08:39:33;;;;;;;16.03;9.67;;;15.30;99.90;;;;;;5023544;28;20454;-84
2023/04/22 08:41:58;;;;;;;17.00;9.52;;;15.40;99.90;;;;;;5058063;28;20322;-82
2023/04/22 08:44:25;;;;;;;14.70;9.35;;;15.40;99.90;;;;;;5063717;28;20052;-84
2023/04/22 08:46:51;;;;;;;15.27;9.83;;;15.50;99.90;;;;;;5067831;28;20044;-85
2023/04/22 08:49:18;;;;;;;16.20;10.02;;;15.50;99.90;;;;;;5066091;28;20287;-84
2023/04/22 08:51:44;;;;;;;14.98;9.10;;;15.50;99.90;;;;;;5062788;28;20354;-80
2023/04/22 08:54:11;;;;;;;15.68;9.60;;;15.60;99.90;;;;;;5065245;28;20079;-86
2023/04/22 08:56:42;;;;;;;13.82;8.73;;;15.70;99.90;;;;;;5066245;28;20045;-84
2023/04/22 08:59:12;;;;;;;16.75;8.73;;;15.70;99.90;;;;;;5063387;28;20040;-85
2023/04/22 09:01:40;;;;;;;14.20;8.68;;;15.70;99.90;;;;;;5063350;28;20048;-83
2023/04/22 09:04:08;;;;;;;14.00;8.77;;;15.80;99.90;;;;;;5066842;28;20461;-87
2023/04/22 09:06:33;;;;;;;14.18;8.73;;;15.80;99.90;;;;;;5070650;28;20048;-83
2023/04/22 09:09:00;;;;;;;14.23;8.90;;;15.80;99.90;;;;;;5062004;28;20045;-84
2023/04/22 09:11:31;;;;;;;14.00;8.40;;;15.90;99.90;;;;;;5045119;28;20059;-82
2023/04/22 09:13:56;;;;;;;13.93;8.73;;;16.00;99.90;;;;;;5068273;28;20389;-83
2023/04/22 09:16:22;;;;;;;15.25;8.88;;;16.00;99.90;;;;;;5068692;28;20076;-83
2023/04/22 09:18:49;;;;;;;17.05;9.13;;;16.20;99.90;;;;;;5071903;28;20059;-86
2023/04/22 09:21:15;;;;;;;13.75;8.30;;;16.20;99.90;;;;;;5048151;28;20051;-85
2023/04/22 09:23:47;;;;;;;14.57;8.55;;;16.30;99.90;;;;;;5059450;28;20124;-85
2023/04/22 09:26:14;;;;;;;14.73;8.85;;;16.50;99.90;;;;;;5041415;28;20131;-85
2023/04/22 09:28:51;;;;;;;14.35;8.80;;;16.70;99.90;;;;;;5057644;28;20048;-85
2023/04/22 09:31:17;;;;;;;13.30;7.80;;;16.90;99.90;;;;;;5059250;28;20047;-87
2023/04/22 09:33:47;;;;;;;11.68;7.30;;;17.20;99.90;;;;;;5063299;28;20536;-86
2023/04/22 09:36:14;;;;;;;12.15;7.18;;;17.40;99.90;;;;;;5059405;28;20513;-85
2023/04/22 09:38:40;;;;;;;10.20;5.95;;;17.60;99.90;;;;;;5057226;28;20048;-83
2023/04/22 09:41:12;;;;;;;12.27;7.55;;;17.70;99.90;;;;;;5057733;28;20058;-82
2023/04/22 09:43:38;;;;;;;11.88;7.43;;;17.80;99.90;;;;;;5058124;28;20037;-85
2023/04/22 09:46:04;;;;;;;10.15;7.00;;;17.70;99.90;;;;;;5061138;28;20041;-85
2023/04/22 09:48:29;;;;;;;10.48;6.63;;;17.90;99.90;;;;;;5061878;28;20049;-87
2023/04/22 09:50:55;;;;;;;10.40;6.50;;;18.00;99.90;;;;;;5062169;28;20053;-83
2023/04/22 09:53:21;;;;;;;14.60;7.05;;;18.10;99.90;;;;;;5056571;28;20048;-76
2023/04/22 09:55:53;;;;;;;9.45;5.82;;;;;;;;;;5055777;28;20045;-82
2023/04/22 09:58:20;;;;;;;9.00;5.60;;;;;;;;;;5058161;28;20040;-82
2023/04/22 10:00:52;;;;;;;10.85;6.13;;;18.40;99.90;;;;;;5041378;28;20473;-83
2023/04/22 10:03:17;;;;;;;9.95;6.15;;;18.40;99.90;;;;;;5057950;28;20119;-83
2023/04/22 10:05:44;;;;;;;10.93;6.40;;;18.30;99.90;;;;;;5059559;28;20079;-85
2023/04/22 10:08:11;;;;;;;12.85;5.95;;;18.30;99.90;;;;;;5060760;28;20053;-82
2023/04/22 10:10:37;;;;;;;9.10;6.03;;;18.20;99.90;;;;;;5062008;28;20602;-83
2023/04/22 10:13:04;;;;;;;8.98;5.65;;;18.30;99.90;;;;;;5061292;28;20053;-82
2023/04/22 10:15:37;;;;;;;13.43;7.13;;;18.30;99.90;;;;;;5057994;28;20459;-85
2023/04/22 10:18:07;;;;;;;8.45;5.63;;;18.20;99.90;;;;;;5057229;28;20405;-83
2023/04/22 10:20:37;;;;;;;11.25;6.38;;;18.30;99.90;;;;;;5039813;28;20068;-84
2023/04/22 10:23:19;;;;;;;10.10;6.47;;;18.20;99.90;;;;;;5037572;28;20555;-84
2023/04/22 10:25:51;;;;;;;10.35;5.80;;;18.20;99.90;;;;;;5057101;28;20138;-83
2023/04/22 10:28:19;;;;;;;11.57;5.95;;;18.30;99.90;;;;;;5057781;28;20044;-84
2023/04/22 10:30:45;;;;;;;10.65;6.38;;;18.40;99.90;;;;;;5057960;28;20512;-81
2023/04/22 10:33:20;;;;;;;10.13;6.47;;;18.40;99.90;;;;;;5060152;28;20112;-78
2023/04/22 10:36:08;;;;;;;12.23;6.93;;;18.40;99.90;;;;;;5060305;28;20102;-81
2023/04/22 10:38:53;;;;;;;10.90;6.15;;;18.20;99.90;;;;;;5059575;28;20080;-82
2023/04/22 10:41:24;;;;;;;11.13;5.97;;;18.30;99.90;;;;;;5055763;28;20091;-84
2023/04/22 10:44:01;;;;;;;8.73;6.05;;;18.50;99.90;;;;;;5057637;28;20044;-83
2023/04/22 10:46:30;;;;;;;9.40;6.07;;;18.60;99.90;;;;;;5056077;28;20044;-87
2023/04/22 10:48:57;;;;;;;10.93;6.72;;;18.60;99.90;;;;;;5055353;28;20469;-86
2023/04/22 10:51:42;;;;;;;9.27;6.32;;;18.60;99.90;;;;;;5055732;28;20049;-83
2023/04/22 10:54:35;;;;;;;10.27;6.15;;;18.60;99.90;;;;;;5054943;28;20053;-84
2023/04/22 10:57:18;;;;;;;10.23;6.40;;;18.70;99.90;;;;;;5064125;28;20052;-83
2023/04/22 10:59:56;;;;;;;12.70;6.88;;;18.80;99.90;;;;;;5058027;28;20084;-84
2023/04/22 11:02:23;;;;;;;10.57;6.78;;;18.80;99.90;;;;;;5054848;28;20051;-83
2023/04/22 11:04:49;;;;;;;12.43;7.30;;;18.90;99.90;;;;;;5054599;28;20048;-84
2023/04/22 11:07:29;;;;;;;10.45;6.15;;;18.90;99.90;;;;;;5036629;28;20053;-82
2023/04/22 11:10:30;;;;;;;12.75;6.88;;;18.90;99.90;;;;;;5055428;28;20363;-88
2023/04/22 11:12:57;;;;;;;11.50;7.18;;;19.00;99.90;;;;;;5055465;28;20473;-84
2023/04/22 11:15:22;;;;;;;11.88;7.10;;;18.90;99.90;;;;;;5053434;28;20115;-82
2023/04/22 11:17:53;;;;;;;11.73;7.40;;;19.00;99.90;;;;;;5052792;28;20064;-86
2023/04/22 11:20:19;;;;;;;9.50;6.53;;;19.20;99.90;;;;;;5053657;28;20500;-86
2023/04/22 11:22:53;;;;;;;12.15;7.13;;;19.30;99.90;;;;;;5054988;28;20045;-88
2023/04/22 11:25:20;;;;;;;11.10;7.05;;;19.50;99.90;;;;;;5055301;28;20045;-81
2023/04/22 11:27:46;;;;;;;10.30;6.60;;;19.50;99.90;;;;;;5053489;28;20548;-83
2023/04/22 11:30:14;;;;;;;11.68;6.82;;;19.60;99.90;;;;;;5036915;28;20473;-81
2023/04/22 11:32:42;;;;;;;12.40;7.72;;;19.70;99.90;;;;;;5053592;28;20097;-84
2023/04/22 11:35:11;;;;;;;11.05;6.82;;;19.70;99.90;;;;;;5055570;28;20037;-85
2023/04/22 11:37:40;;;;;;;12.30;7.80;;;19.50;99.90;;;;;;5053969;28;20045;-81
2023/04/22 11:40:08;;;;;;;11.48;7.25;;;19.70;99.90;;;;;;5054868;28;20045;-86
2023/04/22 11:42:37;;;;;;;12.73;7.40;;;19.60;99.90;;;;;;5053464;28;20041;-82
2023/04/22 11:45:04;;;;;;;11.88;7.40;;;19.70;99.90;;;;;;5036730;28;20052;-83
2023/04/22 11:47:31;;;;;;;10.18;7.70;;;20.00;99.90;;;;;;5053986;28;20053;-86
2023/04/22 11:49:58;;;;;;;11.63;6.32;;;20.10;99.90;;;;;;5052442;28;20476;-81
2023/04/22 11:52:51;;;;;;;12.65;7.18;;;20.30;99.90;;;;;;5053381;28;20045;-82
2023/04/22 11:55:19;;;;;;;11.25;6.90;;;20.00;99.90;;;;;;5054017;28;20081;-84
2023/04/22 11:57:50;;;;;;;9.15;6.63;;;20.20;99.90;;;;;;5053319;28;20045;-84
2023/04/22 12:00:16;;;;;;;10.75;7.00;;;20.40;99.90;;;;;;5052274;28;20045;-85
2023/04/22 12:02:44;;;;;;;9.95;6.75;;;20.50;99.90;;;;;;5054302;28;20048;-84
2023/04/22 12:05:11;;;;;;;8.93;6.20;;;20.30;99.90;;;;;;5052779;28;20037;-85
2023/04/22 12:07:37;;;;;;;8.40;6.07;;;20.40;99.90;;;;;;5053780;28;20056;-81
2023/04/22 12:10:06;;;;;;;8.85;6.25;;;20.50;99.90;;;;;;5052180;28;20393;-82
2023/04/22 12:12:34;;;;;;;13.23;8.73;;;20.60;99.90;;;;;;5053369;28;20401;-82
2023/04/22 12:15:09;;;;;;;12.15;7.05;;;20.50;99.90;;;;;;5035993;28;20139;-81
2023/04/22 12:17:35;;;;;;;13.68;6.30;;;20.40;99.90;;;;;;5051559;28;20508;-83
2023/04/22 12:20:04;;;;;;;13.47;7.30;;;20.50;99.90;;;;;;5056404;28;20120;-81
2023/04/22 12:22:32;;;;;;;10.88;6.50;;;20.40;99.90;;;;;;5057099;28;20089;-80
2023/04/22 12:24:58;;;;;;;9.70;6.53;;;20.30;99.90;;;;;;5039911;28;20049;-80
2023/04/22 12:27:24;;;;;;;10.48;6.60;;;20.30;99.90;;;;;;5056365;28;20478;-79
2023/04/22 12:29:55;;;;;;;10.03;6.43;;;20.20;99.90;;;;;;5055969;28;20048;-82
2023/04/22 12:32:25;;;;;;;8.90;6.22;;;20.30;99.90;;;;;;5057896;28;20132;-75
2023/04/22 12:34:51;;;;;;;10.98;6.35;;;20.30;99.90;;;;;;5057426;28;20084;-74
2023/04/22 12:37:17;;;;;;;11.27;6.82;;;20.30;99.90;;;;;;5056398;28;20041;-77